Crows Landing, CA (95313)

1:21 PM PDT on March 25, 2017 (GMT -0700)
Machado/Crows Landing | | Change Station

Elev 92 ft 37.40 °N, 121.06 °W | Updated 7 minutes ago

Partly Cloudy
Partly Cloudy
60.1 °F
Feels Like 60.1 °F
N
0.0
Wind Variable Wind from NNW
Gusts 15.0 mph

Today
High -- | Low -- °F
--% Chance of Precip.
Yesterday
High -- | Low -- °F
Precip. -- in
Pressure 30.15 in
Visibility 10.0 miles
Clouds Scattered Clouds 2800 ft
Mostly Cloudy 3800 ft
Dew Point 53 °F
Humidity 79%
Rainfall 0.09 in
Snow Depth Not available.
6:59 AM 7:21 PM
Waning Crescent, 7% visible
METAR KMOD 251953Z 31006KT 10SM SCT028 BKN038 17/11 A3015 RMK AO2 SLP210 T01720111
Pressure 30.15 in
Visibility 10.0 miles
Clouds Scattered Clouds 2800 ft
Mostly Cloudy 3800 ft
Dew Point 53 °F
Humidity 79%
Rainfall 0.09 in
Snow Depth Not available.
6:59 AM 7:21 PM
Waning Crescent, 7% visible
METAR KMOD 251953Z 31006KT 10SM SCT028 BKN038 17/11 A3015 RMK AO2 SLP210 T01720111

Get Severe Weather Alerts

Thanks for signing up!

Be on the lookout for a verification email in your inbox.

You'll start receiving the daily forecast at 8 AM.

×

10-Day Weather Forecast

Almanac

Astronomy

Mar. 25, 2017 Rise Set
Actual Time
Civil Twilight
Nautical Twilight
Astronomical Twilight
Moon
Length of Visible Light
Length of Day
Tomorrow will be .
, % of the Moon is Illuminated

Today's Extremes

State Highs State Lows

Community

WunderPhotos

Upload Photos

1,962,540 photos uploaded!

WunderBlog® & News

Nearby

Air Quality

  Air Quality AQ Index Pollutant
Not available.

Snow Depth

Station Depth Elevation

Earthquake Activity

City Distance Mag. Time & Date
Minimum magnitude displayed is 2.5.

Earthquake Activity

City Distance Mag. Time & Date
Minimum magnitude displayed is 2.5.

Coastal Water Temperatures

Place Temperature

Stations

Nearby Weather Stations

Station Location Temp. Windchill Dew Point Humidity Wind Precip. Elev Updated Type
                   

Watches & Warnings

There are currently no watches in effect.